sensor_id;sensor_type;location;lat;lon;timestamp;pressure;altitude;pressure_sealevel;temperature;humidity
6833;BME280;3454;42.654;23.378;2023-12-07T00:01:15;63524.56;;;5.68;100.00
6833;BME280;3454;42.654;23.378;2023-12-07T00:03:41;63533.84;;;5.76;100.00
6833;BME280;3454;42.654;23.378;2023-12-07T00:06:06;63531.44;;;5.72;100.00
6833;BME280;3454;42.654;23.378;2023-12-07T00:08:32;63516.63;;;5.63;100.00
6833;BME280;3454;42.654;23.378;2023-12-07T00:10:57;63524.88;;;5.66;100.00
6833;BME280;3454;42.654;23.378;2023-12-07T00:13:23;63511.97;;;5.61;100.00
6833;BME280;3454;42.654;23.378;2023-12-07T00:15:48;63521.88;;;5.65;100.00
6833;BME280;3454;42.654;23.378;2023-12-07T00:18:14;63515.53;;;5.62;100.00
6833;BME280;3454;42.654;23.378;2023-12-07T00:20:40;63538.19;;;5.80;100.00
6833;BME280;3454;42.654;23.378;2023-12-07T00:23:05;63552.91;;;5.94;100.00
6833;BME280;3454;42.654;23.378;2023-12-07T00:25:31;63562.19;;;6.03;100.00
6833;BME280;3454;42.654;23.378;2023-12-07T00:27:57;63567.31;;;6.10;100.00
6833;BME280;3454;42.654;23.378;2023-12-07T00:30:22;63582.78;;;6.26;100.00
6833;BME280;3454;42.654;23.378;2023-12-07T00:32:48;63594.00;;;6.34;100.00
6833;BME280;3454;42.654;23.378;2023-12-07T00:35:13;63596.50;;;6.34;100.00
6833;BME280;3454;42.654;23.378;2023-12-07T00:37:40;63595.63;;;6.36;100.00
6833;BME280;3454;42.654;23.378;2023-12-07T00:40:06;63550.19;;;5.91;100.00
6833;BME280;3454;42.654;23.378;2023-12-07T00:42:33;63554.75;;;5.98;100.00
6833;BME280;3454;42.654;23.378;2023-12-07T00:45:00;63552.06;;;5.96;100.00
6833;BME280;3454;42.654;23.378;2023-12-07T00:47:26;63556.94;;;6.00;100.00
6833;BME280;3454;42.654;23.378;2023-12-07T00:49:52;63577.97;;;6.17;100.00
6833;BME280;3454;42.654;23.378;2023-12-07T00:52:17;63591.06;;;6.29;100.00
6833;BME280;3454;42.654;23.378;2023-12-07T00:54:43;63582.00;;;6.23;100.00
6833;BME280;3454;42.654;23.378;2023-12-07T00:57:09;63575.78;;;6.15;100.00
6833;BME280;3454;42.654;23.378;2023-12-07T00:59:34;63557.25;;;5.98;100.00
6833;BME280;3454;42.654;23.378;2023-12-07T01:02:04;63565.66;;;6.08;100.00
6833;BME280;3454;42.654;23.378;2023-12-07T01:04:30;63560.78;;;6.04;100.00
6833;BME280;3454;42.654;23.378;2023-12-07T01:06:57;63554.56;;;5.96;100.00
6833;BME280;3454;42.654;23.378;2023-12-07T01:09:22;63558.38;;;5.99;100.00
6833;BME280;3454;42.654;23.378;2023-12-07T01:11:49;63552.91;;;5.94;100.00
6833;BME280;3454;42.654;23.378;2023-12-07T01:14:15;63558.81;;;6.04;100.00
6833;BME280;3454;42.654;23.378;2023-12-07T01:16:40;63576.34;;;6.16;100.00
6833;BME280;3454;42.654;23.378;2023-12-07T01:19:06;63589.94;;;6.28;100.00
6833;BME280;3454;42.654;23.378;2023-12-07T01:21:32;63551.50;;;5.95;100.00
6833;BME280;3454;42.654;23.378;2023-12-07T01:23:58;63560.22;;;6.03;100.00
6833;BME280;3454;42.654;23.378;2023-12-07T01:26:24;63569.69;;;6.14;100.00
6833;BME280;3454;42.654;23.378;2023-12-07T01:28:49;63587.78;;;6.26;100.00
6833;BME280;3454;42.654;23.378;2023-12-07T01:31:15;63596.50;;;6.34;100.00
6833;BME280;3454;42.654;23.378;2023-12-07T01:33:40;63598.91;;;6.39;100.00
6833;BME280;3454;42.654;23.378;2023-12-07T01:36:06;63597.28;;;6.37;100.00
6833;BME280;3454;42.654;23.378;2023-12-07T01:38:32;63604.69;;;6.42;100.00
6833;BME280;3454;42.654;23.378;2023-12-07T01:40:57;63615.25;;;6.54;100.00
6833;BME280;3454;42.654;23.378;2023-12-07T01:43:23;63625.59;;;6.63;100.00
6833;BME280;3454;42.654;23.378;2023-12-07T01:45:51;63628.88;;;6.66;100.00
6833;BME280;3454;42.654;23.378;2023-12-07T01:48:20;63598.16;;;6.36;100.00
6833;BME280;3454;42.654;23.378;2023-12-07T01:50:46;63550.97;;;5.94;100.00
6833;BME280;3454;42.654;23.378;2023-12-07T01:53:13;63519.91;;;5.66;100.00
6833;BME280;3454;42.654;23.378;2023-12-07T01:55:41;63504.97;;;5.50;100.00
6833;BME280;3454;42.654;23.378;2023-12-07T01:58:07;63491.59;;;5.40;100.00
6833;BME280;3454;42.654;23.378;2023-12-07T02:00:34;63481.25;;;5.30;100.00
6833;BME280;3454;42.654;23.378;2023-12-07T02:03:00;63482.88;;;5.32;100.00
6833;BME280;3454;42.654;23.378;2023-12-07T02:05:28;63475.59;;;5.23;100.00
6833;BME280;3454;42.654;23.378;2023-12-07T02:07:54;63473.09;;;5.23;100.00
6833;BME280;3454;42.654;23.378;2023-12-07T02:10:19;63484.28;;;5.31;100.00
6833;BME280;3454;42.654;23.378;2023-12-07T02:12:46;63475.50;;;5.27;100.00
6833;BME280;3454;42.654;23.378;2023-12-07T02:15:12;63481.47;;;5.33;100.00
6833;BME280;3454;42.654;23.378;2023-12-07T02:23:01;63488.56;;;5.39;100.00
6833;BME280;3454;42.654;23.378;2023-12-07T02:28:51;63486.16;;;5.35;100.00
6833;BME280;3454;42.654;23.378;2023-12-07T02:31:17;63487.22;;;5.36;100.00
6833;BME280;3454;42.654;23.378;2023-12-07T02:33:44;63501.94;;;5.49;100.00
6833;BME280;3454;42.654;23.378;2023-12-07T02:36:09;63492.13;;;5.40;100.00
6833;BME280;3454;42.654;23.378;2023-12-07T02:38:37;63509.00;;;5.56;100.00
6833;BME280;3454;42.654;23.378;2023-12-07T02:41:11;63511.19;;;5.58;100.00
6833;BME280;3454;42.654;23.378;2023-12-07T02:43:37;63507.16;;;5.52;100.00
6833;BME280;3454;42.654;23.378;2023-12-07T02:46:03;63513.34;;;5.60;100.00
6833;BME280;3454;42.654;23.378;2023-12-07T02:48:29;63517.50;;;5.61;100.00
6833;BME280;3454;42.654;23.378;2023-12-07T02:50:54;63515.31;;;5.59;100.00
6833;BME280;3454;42.654;23.378;2023-12-07T02:53:20;63540.91;;;5.83;100.00
6833;BME280;3454;42.654;23.378;2023-12-07T02:55:45;63540.84;;;5.87;100.00
6833;BME280;3454;42.654;23.378;2023-12-07T02:58:11;63561.31;;;6.04;100.00
6833;BME280;3454;42.654;23.378;2023-12-07T03:00:36;63572.19;;;6.14;100.00
6833;BME280;3454;42.654;23.378;2023-12-07T03:03:02;63574.94;;;6.17;100.00
6833;BME280;3454;42.654;23.378;2023-12-07T03:05:27;63583.09;;;6.24;100.00
6833;BME280;3454;42.654;23.378;2023-12-07T03:07:53;63594.31;;;6.32;100.00
6833;BME280;3454;42.654;23.378;2023-12-07T03:10:18;63593.66;;;6.36;100.00
6833;BME280;3454;42.654;23.378;2023-12-07T03:12:44;63595.63;;;6.36;100.00
6833;BME280;3454;42.654;23.378;2023-12-07T03:15:09;63609.28;;;6.48;100.00
6833;BME280;3454;42.654;23.378;2023-12-07T03:17:35;63606.88;;;6.44;100.00
6833;BME280;3454;42.654;23.378;2023-12-07T03:20:03;63609.28;;;6.48;100.00
6833;BME280;3454;42.654;23.378;2023-12-07T03:22:29;63618.00;;;6.56;100.00
6833;BME280;3454;42.654;23.378;2023-12-07T03:24:55;63619.06;;;6.57;100.00
6833;BME280;3454;42.654;23.378;2023-12-07T03:27:20;63610.34;;;6.49;100.00
6833;BME280;3454;42.654;23.378;2023-12-07T03:29:46;63603.25;;;6.43;100.00
6833;BME280;3454;42.654;23.378;2023-12-07T03:32:11;63600.53;;;6.40;100.00
6833;BME280;3454;42.654;23.378;2023-12-07T03:34:37;63610.66;;;6.47;100.00
6833;BME280;3454;42.654;23.378;2023-12-07T03:37:02;63613.94;;;6.50;100.00
6833;BME280;3454;42.654;23.378;2023-12-07T03:39:28;63618.84;;;6.55;100.00
6833;BME280;3454;42.654;23.378;2023-12-07T03:42:04;63624.63;;;6.58;100.00
6833;BME280;3454;42.654;23.378;2023-12-07T03:44:29;63616.34;;;6.55;100.00
6833;BME280;3454;42.654;23.378;2023-12-07T03:46:56;63609.59;;;6.46;100.00
6833;BME280;3454;42.654;23.378;2023-12-07T03:49:21;63608.72;;;6.48;100.00
6833;BME280;3454;42.654;23.378;2023-12-07T03:51:47;63621.25;;;6.59;100.00
6833;BME280;3454;42.654;23.378;2023-12-07T03:54:12;63612.53;;;6.51;100.00
6833;BME280;3454;42.654;23.378;2023-12-07T03:56:38;63607.94;;;6.45;100.00
6833;BME280;3454;42.654;23.378;2023-12-07T03:59:06;63600.00;;;6.40;100.00
6833;BME280;3454;42.654;23.378;2023-12-07T04:01:32;63605.75;;;6.43;100.00
6833;BME280;3454;42.654;23.378;2023-12-07T04:03:57;63593.91;;;6.39;100.00
6833;BME280;3454;42.654;23.378;2023-12-07T04:06:24;63603.81;;;6.43;100.00
6833;BME280;3454;42.654;23.378;2023-12-07T04:08:50;63597.03;;;6.35;100.00
6833;BME280;3454;42.654;23.378;2023-12-07T04:11:16;63608.16;;;6.47;100.00
6833;BME280;3454;42.654;23.378;2023-12-07T04:13:43;63609.28;;;6.48;100.00
6833;BME280;3454;42.654;23.378;2023-12-07T04:16:09;63620.16;;;6.58;100.00
6833;BME280;3454;42.654;23.378;2023-12-07T04:18:36;63634.09;;;6.69;100.00
6833;BME280;3454;42.654;23.378;2023-12-07T04:21:02;63627.78;;;6.65;100.00
6833;BME280;3454;42.654;23.378;2023-12-07T04:23:28;63623.75;;;6.59;100.00
6833;BME280;3454;42.654;23.378;2023-12-07T04:25:54;63630.53;;;6.68;100.00
6833;BME280;3454;42.654;23.378;2023-12-07T04:28:20;63626.38;;;6.66;100.00
6833;BME280;3454;42.654;23.378;2023-12-07T04:30:45;63603.25;;;6.43;100.00
6833;BME280;3454;42.654;23.378;2023-12-07T04:33:11;63566.22;;;6.09;100.00
6833;BME280;3454;42.654;23.378;2023-12-07T04:35:36;63563.28;;;6.04;100.00
6833;BME280;3454;42.654;23.378;2023-12-07T04:38:02;63570.34;;;6.10;100.00
6833;BME280;3454;42.654;23.378;2023-12-07T04:40:28;63574.16;;;6.14;100.00
6833;BME280;3454;42.654;23.378;2023-12-07T04:42:53;63561.53;;;6.07;100.00
6833;BME280;3454;42.654;23.378;2023-12-07T04:45:19;63554.75;;;5.98;100.00
6833;BME280;3454;42.654;23.378;2023-12-07T04:47:45;63563.47;;;6.06;100.00
6833;BME280;3454;42.654;23.378;2023-12-07T04:50:11;63568.72;;;6.09;100.00
6833;BME280;3454;42.654;23.378;2023-12-07T04:52:36;63589.44;;;6.28;100.00
6833;BME280;3454;42.654;23.378;2023-12-07T04:55:02;63582.88;;;6.22;100.00
6833;BME280;3454;42.654;23.378;2023-12-07T04:57:28;63592.03;;;6.35;100.00
6833;BME280;3454;42.654;23.378;2023-12-07T04:59:53;63578.41;;;6.22;100.00
6833;BME280;3454;42.654;23.378;2023-12-07T05:02:19;63553.38;;;5.99;100.00
6833;BME280;3454;42.654;23.378;2023-12-07T05:04:44;63540.06;;;5.84;100.00
6833;BME280;3454;42.654;23.378;2023-12-07T05:07:11;63553.13;;;5.97;100.00
6833;BME280;3454;42.654;23.378;2023-12-07T05:09:37;63557.50;;;6.01;100.00
6833;BME280;3454;42.654;23.378;2023-12-07T05:12:04;63541.69;;;5.86;100.00
6833;BME280;3454;42.654;23.378;2023-12-07T05:14:31;63541.16;;;5.85;100.00
6833;BME280;3454;42.654;23.378;2023-12-07T05:16:57;63532.75;;;5.75;100.00
6833;BME280;3454;42.654;23.378;2023-12-07T05:19:25;63537.63;;;5.80;100.00
6833;BME280;3454;42.654;23.378;2023-12-07T05:21:51;63533.75;;;5.81;100.00
6833;BME280;3454;42.654;23.378;2023-12-07T05:24:17;63513.91;;;5.60;100.00
6833;BME280;3454;42.654;23.378;2023-12-07T05:26:43;63511.19;;;5.58;100.00
6833;BME280;3454;42.654;23.378;2023-12-07T05:29:11;63519.13;;;5.63;100.00
6833;BME280;3454;42.654;23.378;2023-12-07T05:31:37;63519.78;;;5.59;100.00
6833;BME280;3454;42.654;23.378;2023-12-07T05:34:02;63524.56;;;5.68;100.00
6833;BME280;3454;42.654;23.378;2023-12-07T05:36:29;63508.25;;;5.53;100.00
6833;BME280;3454;42.654;23.378;2023-12-07T05:38:55;63513.16;;;5.57;100.00
6833;BME280;3454;42.654;23.378;2023-12-07T05:41:21;63504.13;;;5.51;100.00
6833;BME280;3454;42.654;23.378;2023-12-07T05:43:47;63500.28;;;5.48;100.00
6833;BME280;3454;42.654;23.378;2023-12-07T05:46:13;63508.25;;;5.53;100.00
6833;BME280;3454;42.654;23.378;2023-12-07T05:48:39;63492.38;;;5.43;100.00
6833;BME280;3454;42.654;23.378;2023-12-07T05:51:05;63492.69;;;5.41;100.00
6833;BME280;3454;42.654;23.378;2023-12-07T05:53:31;63511.97;;;5.61;100.00
6833;BME280;3454;42.654;23.378;2023-12-07T05:55:58;63801.59;;;8.23;100.00
6833;BME280;3454;42.654;23.378;2023-12-07T05:58:24;63753.22;;;7.81;100.00
6833;BME280;3454;42.654;23.378;2023-12-07T06:00:50;63693.75;;;7.26;100.00
6833;BME280;3454;42.654;23.378;2023-12-07T06:03:15;63634.00;;;6.73;100.00
6833;BME280;3454;42.654;23.378;2023-12-07T06:05:41;63604.34;;;6.44;100.00
6833;BME280;3454;42.654;23.378;2023-12-07T06:08:07;63591.06;;;6.29;100.00
6833;BME280;3454;42.654;23.378;2023-12-07T06:10:33;63579.06;;;6.18;100.00
6833;BME280;3454;42.654;23.378;2023-12-07T06:13:00;63563.81;;;6.04;100.00
6833;BME280;3454;42.654;23.378;2023-12-07T06:15:26;63554.75;;;5.98;100.00
6833;BME280;3454;42.654;23.378;2023-12-07T06:17:54;63555.63;;;5.97;100.00
6833;BME280;3454;42.654;23.378;2023-12-07T06:20:19;63547.47;;;5.89;100.00
6833;BME280;3454;42.654;23.378;2023-12-07T06:22:45;63531.88;;;5.77;100.00
6833;BME280;3454;42.654;23.378;2023-12-07T06:25:11;63539.28;;;5.81;100.00
6833;BME280;3454;42.654;23.378;2023-12-07T06:27:37;63542.78;;;5.87;100.00
6833;BME280;3454;42.654;23.378;2023-12-07T06:30:03;63556.41;;;6.00;100.00
6833;BME280;3454;42.654;23.378;2023-12-07T06:32:32;63562.94;;;6.06;100.00
6833;BME280;3454;42.654;23.378;2023-12-07T06:34:57;63564.03;;;6.07;100.00
6833;BME280;3454;42.654;23.378;2023-12-07T06:37:23;63565.34;;;6.10;100.00
6833;BME280;3454;42.654;23.378;2023-12-07T06:39:49;63541.16;;;5.85;100.00
6833;BME280;3454;42.654;23.378;2023-12-07T06:42:15;63576.78;;;6.21;100.00
6833;BME280;3454;42.654;23.378;2023-12-07T06:44:42;63589.44;;;6.28;100.00
6833;BME280;3454;42.654;23.378;2023-12-07T06:47:08;63565.66;;;6.08;100.00
6833;BME280;3454;42.654;23.378;2023-12-07T06:49:34;63580.72;;;6.20;100.00
6833;BME280;3454;42.654;23.378;2023-12-07T06:52:01;63572.19;;;6.14;100.00
6833;BME280;3454;42.654;23.378;2023-12-07T06:54:26;63576.88;;;6.16;100.00
6833;BME280;3454;42.654;23.378;2023-12-07T06:56:52;63572.00;;;6.12;100.00
6833;BME280;3454;42.654;23.378;2023-12-07T06:59:19;63586.91;;;6.28;100.00
6833;BME280;3454;42.654;23.378;2023-12-07T07:01:45;63587.44;;;6.28;100.00
6833;BME280;3454;42.654;23.378;2023-12-07T07:04:11;63595.09;;;6.35;100.00
6833;BME280;3454;42.654;23.378;2023-12-07T07:06:36;63612.84;;;6.49;100.00
6833;BME280;3454;42.654;23.378;2023-12-07T07:09:02;63600.53;;;6.40;100.00
6833;BME280;3454;42.654;23.378;2023-12-07T07:11:30;63601.41;;;6.39;100.00
6833;BME280;3454;42.654;23.378;2023-12-07T07:13:55;63603.81;;;6.43;100.00
6833;BME280;3454;42.654;23.378;2023-12-07T07:16:21;63616.34;;;6.55;100.00
6833;BME280;3454;42.654;23.378;2023-12-07T07:18:46;63609.28;;;6.48;100.00
6833;BME280;3454;42.654;23.378;2023-12-07T07:21:12;63611.78;;;6.48;100.00
6833;BME280;3454;42.654;23.378;2023-12-07T07:23:37;63589.31;;;6.32;100.00
6833;BME280;3454;42.654;23.378;2023-12-07T07:26:03;63585.06;;;6.24;100.00
6833;BME280;3454;42.654;23.378;2023-12-07T07:28:28;63591.28;;;6.32;100.00
6833;BME280;3454;42.654;23.378;2023-12-07T07:30:54;63578.72;;;6.20;100.00
6833;BME280;3454;42.654;23.378;2023-12-07T07:33:20;63569.50;;;6.12;100.00
6833;BME280;3454;42.654;23.378;2023-12-07T07:35:45;63564.59;;;6.07;100.00
6833;BME280;3454;42.654;23.378;2023-12-07T07:38:18;63576.88;;;6.16;100.00
6833;BME280;3454;42.654;23.378;2023-12-07T07:40:43;63564.59;;;6.07;100.00
6833;BME280;3454;42.654;23.378;2023-12-07T07:43:11;63562.19;;;6.03;100.00
6833;BME280;3454;42.654;23.378;2023-12-07T07:45:36;63567.31;;;6.10;100.00
6833;BME280;3454;42.654;23.378;2023-12-07T07:48:02;63590.28;;;6.26;100.00
6833;BME280;3454;42.654;23.378;2023-12-07T07:50:28;63585.50;;;6.29;100.00
6833;BME280;3454;42.654;23.378;2023-12-07T07:52:54;63592.34;;;6.33;100.00
6833;BME280;3454;42.654;23.378;2023-12-07T07:55:20;63577.66;;;6.19;100.00
6833;BME280;3454;42.654;23.378;2023-12-07T07:57:45;63575.25;;;6.15;100.00
6833;BME280;3454;42.654;23.378;2023-12-07T08:00:12;63582.34;;;6.21;100.00
6833;BME280;3454;42.654;23.378;2023-12-07T08:02:38;63592.69;;;6.31;100.00
6833;BME280;3454;42.654;23.378;2023-12-07T08:05:04;63603.25;;;6.43;100.00
6833;BME280;3454;42.654;23.378;2023-12-07T08:07:30;63584.50;;;6.23;100.00
6833;BME280;3454;42.654;23.378;2023-12-07T08:09:55;63567.31;;;6.10;100.00
6833;BME280;3454;42.654;23.378;2023-12-07T08:12:21;63548.22;;;5.92;100.00
6833;BME280;3454;42.654;23.378;2023-12-07T08:14:49;63528.59;;;5.74;100.00
6833;BME280;3454;42.654;23.378;2023-12-07T08:17:15;63522.94;;;5.66;100.00
6833;BME280;3454;42.654;23.378;2023-12-07T08:19:43;63500.28;;;5.48;100.00
6833;BME280;3454;42.654;23.378;2023-12-07T08:22:10;63512.84;;;5.59;100.00
6833;BME280;3454;42.654;23.378;2023-12-07T08:24:35;63520.75;;;5.64;100.00
6833;BME280;3454;42.654;23.378;2023-12-07T08:27:02;63510.44;;;5.55;100.00
6833;BME280;3454;42.654;23.378;2023-12-07T08:29:29;63503.88;;;5.49;100.00
6833;BME280;3454;42.654;23.378;2023-12-07T08:31:54;63498.13;;;5.46;100.00
6833;BME280;3454;42.654;23.378;2023-12-07T08:34:20;63510.44;;;5.55;100.00
6833;BME280;3454;42.654;23.378;2023-12-07T08:36:45;63488.31;;;5.37;100.00
6833;BME280;3454;42.654;23.378;2023-12-07T08:39:11;63484.28;;;5.31;100.00
6833;BME280;3454;42.654;23.378;2023-12-07T08:41:36;63476.34;;;5.26;100.00
6833;BME280;3454;42.654;23.378;2023-12-07T08:44:03;63475.59;;;5.23;100.00
6833;BME280;3454;42.654;23.378;2023-12-07T08:46:29;63469.06;;;5.17;100.00
6833;BME280;3454;42.654;23.378;2023-12-07T08:48:54;63459.16;;;5.12;100.00
6833;BME280;3454;42.654;23.378;2023-12-07T08:51:21;63475.25;;;5.25;100.00
6833;BME280;3454;42.654;23.378;2023-12-07T08:53:47;63482.13;;;5.29;100.00
6833;BME280;3454;42.654;23.378;2023-12-07T08:56:12;63466.88;;;5.15;100.00
6833;BME280;3454;42.654;23.378;2023-12-07T08:58:39;63462.53;;;5.10;100.00
6833;BME280;3454;42.654;23.378;2023-12-07T09:01:05;63448.59;;;5.00;100.00
6833;BME280;3454;42.654;23.378;2023-12-07T09:03:31;63447.28;;;4.96;100.00
6833;BME280;3454;42.654;23.378;2023-12-07T09:06:01;63444.56;;;4.94;100.00
6833;BME280;3454;42.654;23.378;2023-12-07T09:08:27;63441.53;;;4.93;100.00
6833;BME280;3454;42.654;23.378;2023-12-07T09:10:53;63421.38;;;4.75;100.00
6833;BME280;3454;42.654;23.378;2023-12-07T09:13:18;63431.41;;;4.86;100.00
6833;BME280;3454;42.654;23.378;2023-12-07T09:15:44;63423.56;;;4.77;100.00
6833;BME280;3454;42.654;23.378;2023-12-07T09:18:09;63425.53;;;4.76;100.00
6833;BME280;3454;42.654;23.378;2023-12-07T09:20:39;63419.53;;;4.71;100.00
6833;BME280;3454;42.654;23.378;2023-12-07T09:23:15;63415.72;;;4.67;100.00
6833;BME280;3454;42.654;23.378;2023-12-07T09:25:41;63410.28;;;4.62;100.00
6833;BME280;3454;42.654;23.378;2023-12-07T09:28:07;63400.19;;;4.55;100.00
6833;BME280;3454;42.654;23.378;2023-12-07T09:30:32;63402.34;;;4.57;100.00
6833;BME280;3454;42.654;23.378;2023-12-07T09:32:59;63387.13;;;4.43;100.00
6833;BME280;3454;42.654;23.378;2023-12-07T09:35:25;63379.84;;;4.34;100.00
6833;BME280;3454;42.654;23.378;2023-12-07T09:37:51;63368.97;;;4.24;100.00
6833;BME280;3454;42.654;23.378;2023-12-07T09:40:21;63349.28;;;4.10;100.00
6833;BME280;3454;42.654;23.378;2023-12-07T09:42:47;63363.53;;;4.19;100.00
6833;BME280;3454;42.654;23.378;2023-12-07T09:45:14;63365.94;;;4.23;100.00
6833;BME280;3454;42.654;23.378;2023-12-07T09:47:42;63352.66;;;4.09;100.00
6833;BME280;3454;42.654;23.378;2023-12-07T09:50:09;63350.94;;;4.12;100.00
6833;BME280;3454;42.654;23.378;2023-12-07T09:52:35;63365.16;;;4.20;100.00
6833;BME280;3454;42.654;23.378;2023-12-07T09:55:04;63350.47;;;4.07;100.00
6833;BME280;3454;42.654;23.378;2023-12-07T09:57:30;63336.03;;;3.96;100.00
6833;BME280;3454;42.654;23.378;2023-12-07T09:59:57;63320.91;;;3.77;100.00
6833;BME280;3454;42.654;23.378;2023-12-07T10:02:22;63330.13;;;3.86;100.00
6833;BME280;3454;42.654;23.378;2023-12-07T10:05:02;63333.09;;;3.91;100.00
6833;BME280;3454;42.654;23.378;2023-12-07T10:07:38;63323.53;;;3.84;100.00
6833;BME280;3454;42.654;23.378;2023-12-07T10:10:05;63309.09;;;3.73;100.00
6833;BME280;3454;42.654;23.378;2023-12-07T10:12:32;63310.25;;;3.70;100.00
6833;BME280;3454;42.654;23.378;2023-12-07T10:15:11;63308.84;;;3.71;100.00
6833;BME280;3454;42.654;23.378;2023-12-07T10:17:57;63304.81;;;3.65;100.00
6833;BME280;3454;42.654;23.378;2023-12-07T10:20:28;63307.75;;;3.70;100.00
6833;BME280;3454;42.654;23.378;2023-12-07T10:25:30;63300.25;;;3.58;100.00
6833;BME280;3454;42.654;23.378;2023-12-07T10:27:56;63288.50;;;3.50;100.00
6833;BME280;3454;42.654;23.378;2023-12-07T10:30:21;63281.47;;;3.43;100.00
6833;BME280;3454;42.654;23.378;2023-12-07T10:32:51;63276.81;;;3.41;100.00
6833;BME280;3454;42.654;23.378;2023-12-07T10:35:18;63276.56;;;3.38;100.00
6833;BME280;3454;42.654;23.378;2023-12-07T10:37:44;63268.44;;;3.31;100.00
6833;BME280;3454;42.654;23.378;2023-12-07T10:40:10;63251.81;;;3.18;100.00
6833;BME280;3454;42.654;23.378;2023-12-07T10:42:36;63246.16;;;3.10;100.00
6833;BME280;3454;42.654;23.378;2023-12-07T10:45:06;63243.13;;;3.10;100.00
6833;BME280;3454;42.654;23.378;2023-12-07T10:47:39;63236.59;;;3.04;100.00
6833;BME280;3454;42.654;23.378;2023-12-07T10:50:06;63229.88;;;2.95;100.00
6833;BME280;3454;42.654;23.378;2023-12-07T10:52:48;63224.44;;;2.90;100.00
6833;BME280;3454;42.654;23.378;2023-12-07T10:55:18;63220.09;;;2.86;100.00
6833;BME280;3454;42.654;23.378;2023-12-07T10:57:53;63221.97;;;2.90;100.00
6833;BME280;3454;42.654;23.378;2023-12-07T11:00:21;63217.84;;;2.89;100.00
6833;BME280;3454;42.654;23.378;2023-12-07T11:02:50;63216.00;;;2.85;100.00
6833;BME280;3454;42.654;23.378;2023-12-07T11:05:17;63219.56;;;2.86;100.00
6833;BME280;3454;42.654;23.378;2023-12-07T11:07:52;63214.13;;;2.81;100.00
6833;BME280;3454;42.654;23.378;2023-12-07T11:10:45;63211.41;;;2.78;100.00
6833;BME280;3454;42.654;23.378;2023-12-07T11:13:18;63217.38;;;2.84;100.00
6833;BME280;3454;42.654;23.378;2023-12-07T11:15:46;63200.56;;;2.68;100.00
6833;BME280;3454;42.654;23.378;2023-12-07T11:18:11;63208.38;;;2.78;100.00
6833;BME280;3454;42.654;23.378;2023-12-07T11:20:42;63202.66;;;2.75;100.00
6833;BME280;3454;42.654;23.378;2023-12-07T11:23:09;63209.78;;;2.77;100.00
6833;BME280;3454;42.654;23.378;2023-12-07T11:25:36;63204.34;;;2.72;100.00
6833;BME280;3454;42.654;23.378;2023-12-07T11:28:05;63199.16;;;2.69;100.00
6833;BME280;3454;42.654;23.378;2023-12-07T11:30:34;63204.34;;;2.72;100.00
6833;BME280;3454;42.654;23.378;2023-12-07T11:33:04;63203.50;;;2.73;100.00
6833;BME280;3454;42.654;23.378;2023-12-07T11:35:30;63207.84;;;2.77;100.00
6833;BME280;3454;42.654;23.378;2023-12-07T11:38:03;63201.63;;;2.69;100.00
6833;BME280;3454;42.654;23.378;2023-12-07T11:40:42;63195.34;;;2.66;100.00
6833;BME280;3454;42.654;23.378;2023-12-07T11:43:17;63194.28;;;2.65;100.00
6833;BME280;3454;42.654;23.378;2023-12-07T11:45:47;63196.22;;;2.64;100.00
6833;BME280;3454;42.654;23.378;2023-12-07T11:48:16;63201.09;;;2.69;100.00
6833;BME280;3454;42.654;23.378;2023-12-07T11:51:01;63209.78;;;2.77;100.00
6833;BME280;3454;42.654;23.378;2023-12-07T11:53:28;63208.69;;;2.76;100.00
6833;BME280;3454;42.654;23.378;2023-12-07T11:55:56;63209.25;;;2.76;100.00
6833;BME280;3454;42.654;23.378;2023-12-07T11:58:24;63205.97;;;2.73;100.00
6833;BME280;3454;42.654;23.378;2023-12-07T12:00:51;63197.53;;;2.68;100.00
6833;BME280;3454;42.654;23.378;2023-12-07T12:03:17;63196.22;;;2.64;100.00
6833;BME280;3454;42.654;23.378;2023-12-07T12:05:43;63184.50;;;2.55;100.00
6833;BME280;3454;42.654;23.378;2023-12-07T12:08:10;63188.59;;;2.57;100.00
6833;BME280;3454;42.654;23.378;2023-12-07T12:10:36;63191.88;;;2.60;100.00
6833;BME280;3454;42.654;23.378;2023-12-07T12:13:03;63177.22;;;2.46;100.00
6833;BME280;3454;42.654;23.378;2023-12-07T12:15:29;63188.28;;;2.59;100.00
6833;BME280;3454;42.654;23.378;2023-12-07T12:17:59;63191.09;;;2.57;100.00
6833;BME280;3454;42.654;23.378;2023-12-07T12:20:25;63200.88;;;2.66;100.00
6833;BME280;3454;42.654;23.378;2023-12-07T12:22:51;63206.53;;;2.74;100.00
6833;BME280;3454;42.654;23.378;2023-12-07T12:25:25;63209.78;;;2.77;100.00
6833;BME280;3454;42.654;23.378;2023-12-07T12:28:01;63214.13;;;2.81;100.00
6833;BME280;3454;42.654;23.378;2023-12-07T12:30:28;63222.81;;;2.89;100.00
6833;BME280;3454;42.654;23.378;2023-12-07T12:32:55;63219.25;;;2.88;100.00
6833;BME280;3454;42.654;23.378;2023-12-07T12:35:20;63217.06;;;2.86;100.00
6833;BME280;3454;42.654;23.378;2023-12-07T12:37:47;63221.19;;;2.87;100.00
6833;BME280;3454;42.654;23.378;2023-12-07T12:40:17;63211.41;;;2.78;100.00
6833;BME280;3454;42.654;23.378;2023-12-07T12:42:48;63213.03;;;2.80;100.00
6833;BME280;3454;42.654;23.378;2023-12-07T12:45:15;63194.28;;;2.65;100.00
6833;BME280;3454;42.654;23.378;2023-12-07T12:47:42;63198.38;;;2.66;100.00
6833;BME280;3454;42.654;23.378;2023-12-07T12:50:38;63199.47;;;2.67;100.00
6833;BME280;3454;42.654;23.378;2023-12-07T12:53:05;63195.91;;;2.66;100.00
6833;BME280;3454;42.654;23.378;2023-12-07T12:55:41;63181.78;;;2.53;100.00
6833;BME280;3454;42.654;23.378;2023-12-07T12:58:09;63185.88;;;2.54;100.00
6833;BME280;3454;42.654;23.378;2023-12-07T13:00:38;63191.31;;;2.60;100.00
6833;BME280;3454;42.654;23.378;2023-12-07T13:03:05;63197.84;;;2.66;100.00
6833;BME280;3454;42.654;23.378;2023-12-07T13:05:31;63191.31;;;2.60;100.00
6833;BME280;3454;42.654;23.378;2023-12-07T13:07:58;63189.16;;;2.58;100.00
6833;BME280;3454;42.654;23.378;2023-12-07T13:10:25;63182.88;;;2.54;100.00
6833;BME280;3454;42.654;23.378;2023-12-07T13:12:51;63183.50;;;2.50;100.00
6833;BME280;3454;42.654;23.378;2023-12-07T13:15:17;63177.22;;;2.46;100.00
6833;BME280;3454;42.654;23.378;2023-12-07T13:17:43;63170.16;;;2.40;100.00
6833;BME280;3454;42.654;23.378;2023-12-07T13:20:09;63164.72;;;2.35;100.00